createdAt,value
2022-10-22T00:00:22.123Z,11.39
2022-10-22T00:02:49.191Z,11.44
2022-10-22T00:05:15.754Z,11.49
2022-10-22T00:07:42.667Z,11.54
2022-10-22T00:10:10.197Z,11.61
2022-10-22T00:12:36.777Z,11.65
2022-10-22T00:15:04.142Z,11.68
2022-10-22T00:17:31.031Z,11.74
2022-10-22T00:19:57.561Z,11.75
2022-10-22T00:22:24.045Z,11.77
2022-10-22T00:24:50.675Z,11.79
2022-10-22T00:27:17.236Z,11.82
2022-10-22T00:29:46.042Z,11.86
2022-10-22T00:32:13.083Z,11.87
2022-10-22T00:34:39.708Z,11.93
2022-10-22T00:37:06.359Z,11.90
2022-10-22T00:39:33.264Z,11.96
2022-10-22T00:41:59.893Z,11.98
2022-10-22T00:44:45.245Z,12.04
2022-10-22T00:47:11.746Z,12.08
2022-10-22T00:49:38.235Z,12.10
2022-10-22T00:52:05.311Z,12.12
2022-10-22T00:54:31.895Z,12.14
2022-10-22T00:56:58.446Z,12.16
2022-10-22T00:59:25.059Z,12.18
2022-10-22T01:01:52.984Z,12.19
2022-10-22T01:04:20.243Z,12.19
2022-10-22T01:06:47.819Z,12.19
2022-10-22T01:09:22.231Z,12.21
2022-10-22T01:11:48.731Z,12.25
2022-10-22T01:14:18.073Z,12.29
2022-10-22T01:16:53.518Z,12.32
2022-10-22T01:19:31.820Z,12.36
2022-10-22T01:22:05.342Z,12.36
2022-10-22T01:24:37.636Z,12.42
2022-10-22T01:27:04.139Z,12.41
2022-10-22T01:29:35.169Z,12.42
2022-10-22T01:32:04.898Z,12.46
2022-10-22T01:34:32.435Z,12.45
2022-10-22T01:37:00.624Z,12.41
2022-10-22T01:39:28.351Z,12.44
2022-10-22T01:41:56.238Z,12.39
2022-10-22T01:44:27.666Z,12.34
2022-10-22T01:47:09.838Z,12.31
2022-10-22T01:49:55.226Z,12.26
2022-10-22T01:52:26.213Z,12.20
2022-10-22T01:55:08.737Z,12.20
2022-10-22T01:57:44.532Z,12.19
2022-10-22T02:00:24.839Z,12.15
2022-10-22T02:03:18.713Z,12.16
2022-10-22T02:05:53.811Z,12.19
2022-10-22T02:08:55.538Z,12.21
2022-10-22T02:11:28.249Z,12.24
2022-10-22T02:13:57.016Z,12.22
2022-10-22T02:16:31.889Z,12.18
2022-10-22T02:19:00.921Z,12.17
2022-10-22T02:21:30.174Z,12.15
2022-10-22T02:24:21.935Z,12.13
2022-10-22T02:27:27.027Z,12.08
2022-10-22T02:30:33.199Z,12.04
2022-10-22T02:33:39.951Z,12.02
2022-10-22T02:36:15.667Z,12.02
2022-10-22T02:38:42.975Z,11.92
2022-10-22T02:41:09.994Z,11.85
2022-10-22T02:43:44.240Z,11.75
2022-10-22T02:46:41.819Z,11.66
2022-10-22T02:49:08.704Z,11.57
2022-10-22T02:51:35.424Z,11.52
2022-10-22T02:54:02.548Z,11.49
2022-10-22T02:56:29.339Z,11.37
2022-10-22T02:58:56.043Z,11.28
2022-10-22T03:01:27.511Z,11.20
2022-10-22T03:03:54.357Z,11.16
2022-10-22T03:06:21.035Z,11.20
2022-10-22T03:08:47.753Z,11.16
2022-10-22T03:11:16.955Z,11.12
2022-10-22T03:13:43.635Z,11.03
2022-10-22T03:16:12.645Z,10.95
2022-10-22T03:18:52.988Z,10.92
2022-10-22T03:21:25.920Z,10.86
2022-10-22T03:24:41.873Z,10.85
2022-10-22T03:27:08.700Z,10.79
2022-10-22T03:29:37.701Z,10.73
2022-10-22T03:32:04.449Z,10.76
2022-10-22T03:34:36.675Z,10.76
2022-10-22T03:37:04.937Z,10.72
2022-10-22T03:39:41.369Z,10.64
2022-10-22T03:42:08.360Z,10.55
2022-10-22T03:44:41.947Z,10.62
2022-10-22T03:47:10.929Z,10.53
2022-10-22T03:49:46.085Z,10.51
2022-10-22T03:52:14.627Z,10.51
2022-10-22T03:54:43.497Z,10.46
2022-10-22T03:57:12.901Z,10.43
2022-10-22T03:59:46.246Z,10.42
2022-10-22T04:02:13.928Z,10.37
2022-10-22T04:04:40.643Z,10.38
2022-10-22T04:07:12.510Z,10.39
2022-10-22T04:09:39.223Z,10.46
2022-10-22T04:12:09.578Z,10.50
2022-10-22T04:14:55.514Z,10.49
2022-10-22T04:17:22.548Z,10.47
2022-10-22T04:19:54.017Z,10.47
2022-10-22T04:22:28.780Z,10.45
2022-10-22T04:24:55.950Z,10.44
2022-10-22T04:27:31.741Z,10.39
2022-10-22T04:29:58.683Z,10.39
2022-10-22T04:32:28.828Z,10.35
2022-10-22T04:34:57.851Z,10.41
2022-10-22T04:37:27.661Z,10.36
2022-10-22T04:39:59.017Z,10.26
2022-10-22T04:42:25.688Z,10.21
2022-10-22T04:44:54.799Z,10.11
2022-10-22T04:47:21.517Z,10.19
2022-10-22T04:49:48.136Z,10.20
2022-10-22T04:52:15.008Z,10.19
2022-10-22T04:54:41.737Z,10.25
2022-10-22T04:57:15.787Z,10.23
2022-10-22T04:59:42.327Z,10.21
2022-10-22T05:02:08.892Z,10.17
2022-10-22T05:04:35.436Z,10.09
2022-10-22T05:07:50.944Z,10.07
2022-10-22T05:09:51.580Z,10.02
2022-10-22T05:12:35.292Z,10.00
2022-10-22T05:15:05.845Z,10.13
2022-10-22T05:17:44.827Z,10.20
2022-10-22T05:20:11.726Z,10.22
2022-10-22T05:22:38.438Z,10.29
2022-10-22T05:25:15.614Z,10.35
2022-10-22T05:27:57.206Z,10.38
2022-10-22T05:30:26.252Z,10.41
2022-10-22T05:32:55.981Z,10.43
2022-10-22T05:35:22.599Z,10.51
2022-10-22T05:37:49.564Z,10.51
2022-10-22T05:40:26.498Z,10.62
2022-10-22T05:42:53.728Z,10.59
2022-10-22T05:45:20.249Z,10.62
2022-10-22T05:47:46.726Z,10.58
2022-10-22T05:50:13.432Z,10.60
2022-10-22T05:52:40.219Z,10.62
2022-10-22T05:55:07.210Z,10.60
2022-10-22T05:57:33.735Z,10.51
2022-10-22T06:00:00.217Z,10.61
2022-10-22T06:02:26.765Z,10.58
2022-10-22T06:04:53.347Z,10.56
2022-10-22T06:07:19.868Z,10.56
2022-10-22T06:09:50.227Z,10.61
2022-10-22T06:12:16.817Z,10.60
2022-10-22T06:14:43.279Z,10.67
2022-10-22T06:17:09.766Z,10.62
2022-10-22T06:19:36.575Z,10.70
2022-10-22T06:22:03.839Z,10.71
2022-10-22T06:24:30.374Z,10.69
2022-10-22T06:26:57.052Z,10.70
2022-10-22T06:29:23.786Z,10.71
2022-10-22T06:31:52.578Z,10.73
2022-10-22T06:34:20.365Z,10.76
2022-10-22T06:36:47.438Z,10.79
2022-10-22T06:39:17.435Z,10.84
2022-10-22T06:41:44.224Z,10.87
2022-10-22T06:44:15.441Z,10.91
2022-10-22T06:46:43.646Z,10.96
2022-10-22T06:49:12.726Z,11.03
2022-10-22T06:51:39.393Z,11.08
2022-10-22T06:54:06.421Z,11.12
2022-10-22T06:56:33.227Z,11.18
2022-10-22T06:58:59.744Z,11.25
2022-10-22T07:01:27.921Z,11.34
2022-10-22T07:03:55.083Z,11.42
2022-10-22T07:06:23.318Z,11.43
2022-10-22T07:08:50.316Z,11.49
2022-10-22T07:11:17.039Z,11.54
2022-10-22T07:13:44.724Z,11.57
2022-10-22T07:16:11.676Z,11.60
2022-10-22T07:18:39.734Z,11.66
2022-10-22T07:21:06.812Z,11.74
2022-10-22T07:23:33.320Z,11.76
2022-10-22T07:26:02.745Z,11.84
2022-10-22T07:28:29.862Z,11.93
2022-10-22T07:30:56.388Z,12.00
2022-10-22T07:33:22.935Z,12.03
2022-10-22T07:35:50.747Z,12.09
2022-10-22T07:38:17.426Z,12.18
2022-10-22T07:40:44.095Z,12.23
2022-10-22T07:43:10.690Z,12.33
2022-10-22T07:45:37.442Z,12.38
2022-10-22T07:48:07.334Z,12.37
2022-10-22T07:50:34.177Z,12.42
2022-10-22T07:53:00.682Z,12.49
2022-10-22T07:55:27.281Z,12.57
2022-10-22T07:57:53.751Z,12.64
2022-10-22T08:00:25.321Z,12.73
2022-10-22T08:02:52.150Z,12.79
2022-10-22T08:05:18.800Z,12.89
2022-10-22T08:07:48.644Z,13.01
2022-10-22T08:10:15.382Z,13.14
2022-10-22T08:12:52.147Z,13.22
2022-10-22T08:15:18.826Z,13.30
2022-10-22T08:17:45.365Z,13.35
2022-10-22T08:20:11.921Z,13.37
2022-10-22T08:22:38.511Z,13.42
2022-10-22T08:25:05.270Z,13.52
2022-10-22T08:27:31.878Z,13.63
2022-10-22T08:29:58.477Z,13.77
2022-10-22T08:32:25.146Z,13.92
2022-10-22T08:34:51.630Z,14.09
2022-10-22T08:37:18.265Z,14.29
2022-10-22T08:39:45.279Z,14.50
2022-10-22T08:42:11.867Z,14.62
2022-10-22T08:44:41.427Z,14.76
2022-10-22T08:47:17.429Z,14.84
2022-10-22T08:49:46.689Z,14.83
2022-10-22T08:52:19.553Z,14.90
2022-10-22T08:54:53.642Z,14.88
2022-10-22T08:57:41.140Z,15.12
2022-10-22T09:00:13.820Z,15.17
2022-10-22T09:03:23.857Z,15.38
2022-10-22T09:06:02.835Z,15.41
2022-10-22T09:08:30.010Z,15.54
2022-10-22T09:11:07.221Z,15.59
2022-10-22T09:13:33.935Z,15.65
2022-10-22T09:16:12.383Z,15.55
2022-10-22T09:18:45.507Z,15.58
2022-10-22T09:21:45.836Z,15.55
2022-10-22T09:24:20.262Z,15.60
2022-10-22T09:26:47.054Z,15.76
2022-10-22T09:29:19.718Z,15.76
2022-10-22T09:31:46.733Z,15.85
2022-10-22T09:34:20.898Z,15.89
2022-10-22T09:36:47.734Z,16.01
2022-10-22T09:39:26.542Z,16.11
2022-10-22T09:42:01.742Z,16.15
2022-10-22T09:44:28.928Z,15.99
2022-10-22T09:46:55.670Z,16.03
2022-10-22T09:55:19.187Z,16.29
2022-10-22T09:57:53.367Z,16.17
2022-10-22T10:00:23.348Z,16.20
2022-10-22T10:02:49.906Z,16.29
2022-10-22T10:05:37.913Z,16.24
2022-10-22T10:08:28.703Z,16.28
2022-10-22T13:52:43.640Z,17.66
2022-10-22T13:55:23.562Z,17.80
2022-10-22T13:58:48.750Z,17.91
2022-10-22T14:31:21.428Z,16.76
2022-10-22T14:33:54.280Z,16.83
2022-10-22T14:36:36.168Z,16.76
2022-10-22T14:39:02.775Z,16.76
2022-10-22T14:41:38.741Z,17.55
2022-10-22T14:44:12.884Z,17.82
2022-10-22T14:46:42.182Z,18.21
2022-10-22T14:49:15.298Z,18.24
2022-10-22T14:51:42.300Z,18.99
2022-10-22T14:54:14.615Z,19.04
2022-10-22T14:56:41.133Z,18.67
2022-10-22T15:04:28.314Z,18.32
2022-10-22T15:06:56.679Z,18.06
2022-10-22T15:11:58.556Z,17.72
2022-10-22T15:14:25.030Z,17.74
2022-10-22T15:16:51.501Z,17.88
2022-10-22T15:19:18.055Z,18.25
2022-10-22T15:21:44.676Z,18.31
2022-10-22T15:24:11.259Z,18.32
2022-10-22T15:26:37.861Z,17.87
2022-10-22T15:29:05.017Z,17.78
2022-10-22T15:31:58.505Z,17.56
2022-10-22T15:34:31.856Z,17.34
2022-10-22T15:37:09.200Z,17.16
2022-10-22T15:39:49.368Z,16.82
2022-10-22T15:42:28.940Z,16.60
2022-10-22T15:44:59.259Z,16.40
2022-10-22T15:47:34.567Z,16.23
2022-10-22T15:50:06.563Z,16.14
2022-10-22T15:52:33.358Z,16.05
2022-10-22T15:55:00.058Z,15.90
2022-10-22T23:32:38.374Z,11.19
2022-10-22T23:39:25.187Z,11.14
2022-10-22T23:48:28.219Z,10.98
2022-10-22T23:50:59.194Z,10.96
